Latest Coastal Weather Observations for Cape Byron

IDN60701

Issued at 10:11 am EST Wednesday 24 May 2017 (issued every 10 minutes, with the page automatically refreshed every 10 minutes)

About coastal observations | Map of coastal stations | Coastal observations for NSW | Marine services | Other Formats
Station Details ID: 058216 Name: CAPE BYRON AWS Lat: -28.64 Lon: 153.64 Height: 95.0 m
Data from the previous 72 hours. | See also: Recent months at Cape Byron
Date/Time
EST
Temp
°C
Wind Pressure Rain since
9am
mm
Weather Cloud Vis
km
Sea
Height
m
Swell
Dir  Spd
kts
Gust
kts
hPa Trend Height
m
Period
s
Dir
24/10:00am 20.3 ESE 5 7 1019.1 - 0.0 - - - - - - -
24/09:30am 18.9 SSW 9 11 1019.8 - 0.0 - - - - - - -
24/09:00am 18.7 SSW 9 11 1019.9 - 0.0 - - - - - - -
24/08:30am 18.6 SW 3 4 1019.4 - 0.0 - - - - - - -
24/08:00am 18.6 CALM 0 2 1019.4 - 0.0 - - - - - - -
24/07:30am 18.6 NE 3 4 1019.1 - 0.0 - - - - - - -
24/07:00am 18.4 NNE 5 6 1018.9 - 0.0 - - - - - - -
24/06:30am 17.3 NNW 4 5 1018.7 - 0.0 - - - - - - -
24/06:00am 17.3 NNW 4 5 1018.5 - 0.0 - - - - - - -
24/05:30am 17.5 NNW 5 7 1018.3 - 0.0 - - - - - - -
24/05:00am 17.4 NNW 5 6 1018.0 - 0.0 - - - - - - -
24/04:30am 17.2 NNW 5 6 1017.9 - 0.0 - - - - - - -
24/04:00am 17.2 NW 5 7 1018.0 - 0.0 - - - - - - -
24/03:30am 17.3 NNW 6 7 1018.1 - 0.0 - - - - - - -
24/03:00am 17.1 NW 5 7 1018.3 - 0.0 - - - - - - -
24/02:30am 17.0 NW 6 8 1018.5 - 0.0 - - - - - - -
24/02:00am 17.1 NW 5 7 1018.8 - 0.0 - - - - - - -
24/01:30am 17.4 NW 6 7 1018.9 - 0.0 - - - - - - -
24/01:00am 17.7 NW 5 7 1019.3 - 0.0 - - - - - - -
24/12:30am 17.8 NW 6 7 1019.6 - 0.0 - - - - - - -
24/12:00am 17.9 NW 6 8 1019.9 - 0.0 - - - - - - -
 
Date/Time
EST
Temp
°C
Wind Pressure Rain since
9am
mm
Weather Cloud Vis
km
Sea
Height
m
Swell
Dir  Spd
kts
Gust
kts
hPa Trend Height
m
Period
s
Dir
23/11:30pm 18.3 WNW 5 6 1020.3 - 0.0 - - - - - - -
23/11:00pm 18.5 WNW 5 7 1020.5 - 0.0 - - - - - - -
23/10:30pm 18.5 WNW 6 7 1020.7 - 0.0 - - - - - - -
23/10:00pm 19.0 NNW 4 7 1020.8 - 0.0 - - - - - - -
23/09:30pm 19.1 NNW 3 4 1020.8 - 0.0 - - - - - - -
23/09:00pm 19.0 WNW 4 5 1021.0 - 0.0 - - - - - - -
23/08:30pm 19.1 NW 3 4 1020.9 - 0.0 - - - - - - -
23/08:00pm 19.2 E 1 4 1020.9 - 0.0 - - - - - - -
23/07:30pm 19.4 NNE 3 5 1020.7 - 0.0 - - - - - - -
23/07:00pm 19.5 E 6 8 1020.5 - 0.0 - - - - - - -
23/06:30pm 19.5 E 6 8 1020.4 - 0.0 - - - - - - -
23/06:00pm 19.5 E 5 8 1020.2 - 0.0 - - - - - - -
23/05:30pm 19.6 E 7 9 1019.7 - 0.0 - - - - - - -
23/05:00pm 19.7 E 9 11 1019.5 - 0.0 - - - - - - -
23/04:30pm 20.0 E 11 13 1019.2 - 0.0 - - - - - - -
23/04:00pm 20.5 E 11 13 1019.1 - 0.0 - - - - - - -
23/03:30pm 20.8 SE 11 13 1019.1 - 0.0 - - - - - - -
23/03:00pm 20.9 SE 10 12 1019.1 - 0.0 - - - - - - -
23/02:30pm 21.2 SE 10 13 1019.2 - 0.0 - - - - - - -
23/02:00pm 21.2 SE 11 13 1019.3 - 0.0 - - - - - - -
23/01:30pm 21.4 SE 10 14 1019.4 - 0.0 - - - - - - -
23/01:00pm 21.6 SSE 9 11 1019.9 - 0.0 - - - - - - -
23/12:30pm 21.4 SE 9 12 1020.4 - 0.0 - - - - - - -
23/12:00pm 21.6 SSE 7 10 1020.8 - 0.0 - - - - - - -
23/11:30am 21.4 S 6 8 1021.2 - 0.0 - - - - - - -
23/11:00am 20.9 SSW 7 10 1021.6 - 0.0 - - - - - - -
23/10:30am 20.7 SSW 7 10 1022.0 - 0.0 - - - - - - -
23/10:00am 20.0 SW 7 9 1022.4 - 0.0 - - - - - - -
23/09:30am 19.4 WSW 7 11 1022.6 - 0.0 - - - - - - -
23/09:00am 18.7 WSW 8 11 1022.8 - 0.4 - - - - - - -
23/08:30am 18.1 WSW 9 11 1022.6 - 0.4 - - - - - - -
23/08:00am 17.5 SW 10 11 1022.5 - 0.4 - - - - - - -
23/07:30am 17.2 SW 11 14 1022.3 - 0.4 - - - - - - -
23/07:00am 16.9 SW 10 12 1022.1 - 0.4 - - - - - - -
23/06:30am 16.9 WSW 10 12 1021.6 - 0.4 - - - - - - -
23/06:00am 17.1 WSW 11 14 1021.4 - 0.2 - - - - - - -
23/05:30am 17.0 WSW 11 15 1021.1 - 0.2 - - - - - - -
23/05:00am 17.2 SW 12 15 1020.8 - 0.2 - - - - - - -
23/04:30am 17.3 WSW 11 15 1020.8 - 0.2 - - - - - - -
23/04:00am 17.2 WSW 11 15 1020.8 - 0.2 - - - - - - -
23/03:30am 17.3 WSW 11 13 1020.6 - 0.2 - - - - - - -
23/03:00am 17.5 WSW 10 13 1020.6 - 0.2 Recent precip. - - - - - -
23/02:30am 17.7 WSW 11 14 1020.6 - 0.0 - - - - - - -
23/02:00am 17.7 WSW 10 13 1020.8 - 0.0 - - - - - - -
23/01:30am 18.4 SW 6 8 1021.1 - 0.0 - - - - - - -
23/01:00am 18.4 WSW 9 10 1021.2 - 0.0 - - - - - - -
23/12:30am 18.4 WSW 8 10 1021.5 - 0.0 - - - - - - -
23/12:00am 18.5 WSW 7 9 1021.8 - 0.0 - - - - - - -
 
Date/Time
EST
Temp
°C
Wind Pressure Rain since
9am
mm
Weather Cloud Vis
km
Sea
Height
m
Swell
Dir  Spd
kts
Gust
kts
hPa Trend Height
m
Period
s
Dir
22/11:30pm 18.5 WSW 7 9 1021.9 - 0.0 - - - - - - -
22/11:00pm 18.8 SW 6 7 1022.2 - 0.0 - - - - - - -
22/10:30pm 18.7 SSW 7 8 1022.2 - 0.0 - - - - - - -
22/10:00pm 18.7 SSW 7 7 1022.4 - 0.0 - - - - - - -
22/09:30pm 19.2 S 6 7 1022.4 - 0.0 - - - - - - -
22/09:00pm 18.8 SW 7 9 1022.5 - 0.0 - - - - - - -
22/08:30pm 19.0 SW 7 9 1022.4 - 0.0 - - - - - - -
22/08:00pm 19.3 SW 7 8 1022.2 - 0.0 - - - - - - -
22/07:30pm 19.1 SW 7 9 1021.8 - 0.0 - - - - - - -
22/07:00pm 19.1 SSW 8 10 1021.6 - 0.0 - - - - - - -
22/06:30pm 19.1 SW 7 9 1021.4 - 0.0 - - - - - - -
22/06:00pm 19.6 SSW 7 9 1021.1 - 0.0 - - - - - - -
22/05:30pm 20.0 SSW 9 10 1020.7 - 0.0 - - - - - - -
22/05:00pm 20.1 SSW 10 11 1020.7 - 0.0 - - - - - - -
22/04:30pm 20.2 S 11 13 1020.7 - 0.0 - - - - - - -
22/04:00pm 20.5 S 13 14 1020.4 - 0.0 - - - - - - -
22/03:30pm 20.8 S 12 13 1020.3 - 0.0 - - - - - - -
22/03:00pm 21.0 S 13 15 1020.3 - 0.0 - - - - - - -
22/02:30pm 21.0 SSW 16 18 1020.4 - 0.0 - - - - - - -
22/02:00pm 21.0 S 15 17 1020.5 - 0.0 - - - - - - -
22/01:30pm 21.3 S 14 17 1020.7 - 0.0 - - - - - - -
22/01:00pm 21.4 S 13 16 1020.9 - 0.0 - - - - - - -
22/12:30pm 21.6 S 12 14 1021.1 - 0.0 - - - - - - -
22/12:00pm 21.4 S 13 14 1021.4 - 0.0 - - - - - - -
22/11:30am 21.8 SSW 10 14 1021.6 - 0.0 - - - - - - -
22/11:00am 21.3 SSW 11 15 1022.1 - 0.0 - - - - - - -
22/10:30am 20.8 SW 11 14 1022.5 - 0.0 - - - - - - -
22/10:00am 20.2 SW 11 15 1022.8 - 0.0 - - - - - - -
22/09:30am 19.9 SSW 12 16 1022.8 - 0.0 - - - - - - -
22/09:00am 19.5 SW 10 15 1022.8 - 0.2 - - - - - - -
22/08:30am 18.7 SW 9 12 1022.6 - 0.2 - - - - - - -
22/08:00am 18.1 WSW 9 14 1022.5 - 0.2 - - - - - - -
22/07:30am 17.8 WSW 11 14 1022.2 - 0.2 - - - - - - -
22/07:00am 17.6 WSW 12 15 1021.8 - 0.2 - - - - - - -
22/06:30am 17.5 WSW 13 15 1021.4 - 0.2 - - - - - - -
22/06:00am 17.2 WSW 13 16 1020.9 - 0.2 Rain - - - - - -
22/05:30am 17.1 WSW 13 15 1020.6 - 0.0 - - - - - - -
22/05:00am 16.8 WSW 12 15 1020.4 - 0.0 - - - - - - -
22/04:30am 17.1 WSW 12 15 1020.4 - 0.0 - - - - - - -
22/04:00am 17.3 WSW 12 15 1020.2 - 0.0 - - - - - - -
22/03:30am 17.0 WSW 13 16 1020.2 - 0.0 - - - - - - -
22/03:00am 16.7 WSW 13 16 1020.3 - 0.0 - - - - - - -
22/02:30am 17.7 WSW 10 14 1020.2 - 0.0 - - - - - - -
22/02:00am 18.1 WSW 10 14 1020.4 - 0.0 - - - - - - -
22/01:30am 18.4 SW 7 8 1020.5 - 0.0 - - - - - - -
22/01:00am 18.6 SW 6 8 1020.6 - 0.0 - - - - - - -
22/12:30am 18.9 SSW 6 7 1020.8 - 0.0 - - - - - - -
22/12:00am 19.3 S 6 7 1020.6 - 0.0 - - - - - - -
 
Date/Time
EST
Temp
°C
Wind Pressure Rain since
9am
mm
Weather Cloud Vis
km
Sea
Height
m
Swell
Dir  Spd
kts
Gust
kts
hPa Trend Height
m
Period
s
Dir
21/11:30pm 19.1 SSW 6 7 1020.9 - 0.0 - - - - - - -
21/11:00pm 19.1 SSW 5 7 1021.1 - 0.0 - - - - - - -
21/10:30pm 19.3 SW 5 5 1021.0 - 0.0 - - - - - - -
21/10:00pm 19.4 CALM 0 2 1021.1 - 0.0 - - - - - - -
21/09:30pm 19.4 SW 4 4 1021.3 - 0.0 - - - - - - -
21/09:00pm 19.5 WSW 3 4 1021.2 - 0.0 - - - - - - -
21/08:30pm 19.4 WSW 3 4 1021.0 - 0.0 - - - - - - -
21/08:00pm 19.5 ESE 3 5 1020.7 - 0.0 - - - - - - -
21/07:30pm 19.5 ESE 6 7 1020.6 - 0.0 - - - - - - -
21/07:00pm 19.7 ESE 5 6 1020.3 - 0.0 - - - - - - -
21/06:30pm 19.6 E 5 7 1020.2 - 0.0 - - - - - - -
21/06:00pm 19.7 ESE 6 8 1019.6 - 0.0 - - - - - - -
21/05:30pm 19.7 E 4 6 1019.4 - 0.0 - - - - - - -
21/05:00pm 19.8 E 5 7 1019.2 - 0.0 - - - - - - -
21/04:30pm 20.1 ESE 7 9 1018.8 - 0.0 - - - - - - -
21/04:00pm 20.5 ESE 9 11 1018.6 - 0.0 - - - - - - -
21/03:30pm 20.5 ESE 9 11 1018.5 - 0.0 - - - - - - -
21/03:00pm 20.9 ESE 10 13 1018.3 - 0.0 - - - - - - -
21/02:30pm 20.9 ESE 10 12 1018.3 - 0.0 - - - - - - -
21/02:00pm 21.1 ESE 10 12 1018.2 - 0.0 - - - - - - -
21/01:30pm 21.2 E 11 14 1018.2 - 0.0 - - - - - - -
21/01:00pm 20.8 ESE 11 13 1018.5 - 0.0 - - - - - - -
21/12:30pm 21.1 SE 9 12 1018.9 - 0.0 - - - - - - -
21/12:00pm 21.7 ESE 8 10 1019.3 - 0.0 - - - - - - -
21/11:30am 21.0 SSE 5 8 1019.5 - 0.0 - - - - - - -
21/11:00am 20.4 S 7 9 1019.9 - 0.0 - - - - - - -
21/10:30am 20.2 S 7 9 1020.1 - 0.0 - - - - - - -

Other Formats:

Comma delimited format used in spreadsheet applications
http://www.bom.gov.au/fwo/IDN60701/IDN60701.94599.axf

JavaScript Object Notation format (JSON) in row-major order
http://www.bom.gov.au/fwo/IDN60701/IDN60701.94599.json